X  Zatvori METAR podaci zračne luke     EDDM Munich Airport
Temperatura
6°C Temperatura
1°C Točka rosišta
71% Vlaga



Vjetar
6 M/S
14 MPS
23 KM/S
12 Čvorovi



240°
ZJZ
Trenutna situacija

Djelimično oblačno Djelimično oblačno
Tlak zraka 1012.92 (hPa) - 29.91 (inHg)
Vidljivost 6.2 (milje) - 10 (km)
Zračna luka
Kôd zračne luke EDDM

Lokacija: Munich Airport
Udaljenost: 30 (km)

Metar:
EDDM 060050Z 24012KT 9999 FEW040 06/01 Q1013 NOSIG

Vrijeme: 06-05-2021 02:50 CEST